Time;durP1;ratioP1;P1;durP2;ratioP2;P2;SDS_P1;SDS_P2;PMS_P1;PMS_P2;Temp;Humidity;BMP_temperature;BMP_pressure;BME280_temperature;BME280_humidity;BME280_pressure;Samples;Min_cycle;Max_cycle;Signal;HPM_P1;HPM_P2
2021/05/30 00:00:29;;;;;;;8.60;5.70;;;14.70;65.30;;;;;;5041548;28;20462;-47
2021/05/30 00:02:58;;;;;;;6.30;5.70;;;14.60;65.40;;;;;;5041668;28;20469;-47
2021/05/30 00:05:27;;;;;;;8.00;5.10;;;14.60;65.60;;;;;;5041937;28;20954;-47
2021/05/30 00:07:58;;;;;;;7.77;5.20;;;14.50;65.70;;;;;;5036869;28;20463;-47
2021/05/30 00:10:26;;;;;;;8.37;5.93;;;14.50;66.00;;;;;;5041505;28;20521;-47
2021/05/30 00:12:55;;;;;;;7.53;5.43;;;14.60;65.50;;;;;;5036797;28;20493;-47
2021/05/30 00:15:24;;;;;;;6.20;5.40;;;14.50;65.30;;;;;;5039219;28;21464;-47
2021/05/30 00:17:52;;;;;;;6.73;5.03;;;14.50;65.40;;;;;;5044372;28;20465;-46
2021/05/30 00:20:20;;;;;;;6.87;5.83;;;14.50;65.60;;;;;;5039606;28;20520;-47
2021/05/30 00:22:49;;;;;;;6.40;5.53;;;14.40;66.40;;;;;;5044028;28;20485;-47
2021/05/30 00:25:17;;;;;;;7.20;5.50;;;14.40;66.40;;;;;;5040537;28;20482;-47
2021/05/30 00:27:46;;;;;;;7.97;6.83;;;14.40;66.40;;;;;;5039281;28;20960;-47
2021/05/30 00:30:15;;;;;;;7.10;6.10;;;14.30;66.50;;;;;;5040432;28;20450;-47
2021/05/30 00:32:43;;;;;;;7.17;5.30;;;14.30;66.50;;;;;;5039777;28;20517;-47
2021/05/30 00:35:12;;;;;;;8.03;6.00;;;14.30;66.60;;;;;;5043054;28;20491;-47
2021/05/30 00:37:40;;;;;;;8.33;6.30;;;14.30;66.60;;;;;;5040837;28;21167;-47
2021/05/30 00:40:10;;;;;;;8.50;6.70;;;14.30;66.50;;;;;;5041777;28;20490;-47
2021/05/30 00:42:38;;;;;;;7.50;6.13;;;14.30;66.50;;;;;;5042760;28;20457;-47
2021/05/30 00:45:10;;;;;;;9.73;6.30;;;14.20;66.60;;;;;;5042919;28;20458;-47
2021/05/30 00:47:40;;;;;;;8.47;6.10;;;14.20;66.70;;;;;;5039217;28;20463;-47
2021/05/30 00:50:10;;;;;;;9.77;7.10;;;14.20;66.60;;;;;;5039597;28;20455;-47
2021/05/30 00:52:41;;;;;;;10.00;6.77;;;14.10;67.10;;;;;;5041933;28;20467;-46
2021/05/30 00:55:12;;;;;;;8.83;7.27;;;14.10;67.10;;;;;;5046754;28;20485;-47
2021/05/30 00:57:40;;;;;;;8.47;6.90;;;14.10;66.90;;;;;;5047359;28;20455;-47
2021/05/30 01:00:11;;;;;;;7.90;6.70;;;14.00;66.90;;;;;;5041196;28;20538;-47
2021/05/30 01:02:40;;;;;;;9.93;6.80;;;14.00;66.70;;;;;;5048881;28;20815;-47
2021/05/30 01:05:09;;;;;;;9.63;7.53;;;14.00;67.00;;;;;;5046601;28;20446;-47
2021/05/30 01:07:42;;;;;;;9.33;6.60;;;14.00;67.00;;;;;;5042804;28;20574;-47
2021/05/30 01:10:29;;;;;;;11.20;6.80;;;13.90;67.20;;;;;;5049878;28;20946;-47
2021/05/30 01:12:58;;;;;;;8.80;6.93;;;13.90;67.30;;;;;;5041539;28;20501;-47
2021/05/30 01:15:29;;;;;;;10.80;7.90;;;13.90;67.40;;;;;;5045985;28;20483;-47
2021/05/30 01:17:58;;;;;;;8.23;6.93;;;13.80;67.70;;;;;;5044558;28;20462;-47
2021/05/30 01:20:27;;;;;;;10.03;7.97;;;13.80;67.70;;;;;;5045562;28;20451;-47
2021/05/30 01:22:55;;;;;;;8.90;7.37;;;13.80;67.90;;;;;;5045918;28;20822;-47
2021/05/30 01:25:25;;;;;;;7.57;6.27;;;13.80;68.10;;;;;;5043342;28;20458;-47
2021/05/30 01:27:53;;;;;;;10.93;8.17;;;13.80;67.60;;;;;;5049250;28;20450;-47
2021/05/30 01:30:23;;;;;;;9.77;7.17;;;13.70;67.60;;;;;;5045810;28;20454;-47
2021/05/30 01:32:51;;;;;;;7.20;6.40;;;13.70;68.00;;;;;;5043076;28;20450;-47
2021/05/30 01:35:19;;;;;;;9.23;7.37;;;13.60;68.10;;;;;;5044155;28;20490;-47
2021/05/30 01:37:49;;;;;;;8.90;6.40;;;13.60;68.10;;;;;;5043881;28;20510;-47
2021/05/30 01:40:21;;;;;;;8.57;7.53;;;13.60;68.10;;;;;;5046069;28;21423;-47
2021/05/30 01:42:52;;;;;;;9.43;7.00;;;13.50;68.20;;;;;;5043778;28;20932;-47
2021/05/30 01:45:23;;;;;;;10.77;7.03;;;13.50;68.20;;;;;;5043679;28;20861;-47
2021/05/30 01:47:51;;;;;;;8.93;7.20;;;13.50;68.30;;;;;;5048470;28;20457;-47
2021/05/30 01:50:23;;;;;;;15.33;7.87;;;13.40;68.40;;;;;;5042120;28;20451;-47
2021/05/30 01:52:52;;;;;;;11.50;7.63;;;13.40;68.60;;;;;;5043165;28;20458;-47
2021/05/30 01:55:44;;;;;;;11.83;8.90;;;13.40;68.60;;;;;;5049137;28;20545;-47
2021/05/30 01:58:14;;;;;;;9.73;7.80;;;13.40;68.80;;;;;;5040976;28;20454;-47
2021/05/30 02:00:43;;;;;;;11.23;8.33;;;13.30;68.90;;;;;;5045313;28;20466;-46
2021/05/30 02:03:13;;;;;;;12.17;8.07;;;13.30;68.90;;;;;;5044842;28;20955;-46
2021/05/30 02:05:45;;;;;;;9.60;7.77;;;13.30;69.00;;;;;;5042853;28;20968;-47
2021/05/30 02:08:14;;;;;;;11.60;8.13;;;13.20;69.10;;;;;;5048861;28;20532;-47
2021/05/30 02:10:42;;;;;;;9.33;8.27;;;13.20;69.10;;;;;;5040383;28;20467;-47
2021/05/30 02:13:12;;;;;;;11.53;8.40;;;13.20;69.20;;;;;;5043916;28;20466;-47
2021/05/30 02:15:40;;;;;;;11.10;8.83;;;13.20;69.30;;;;;;5040267;28;20492;-47
2021/05/30 02:18:09;;;;;;;10.10;7.97;;;13.10;69.20;;;;;;5040994;28;20454;-47
2021/05/30 02:20:39;;;;;;;11.23;8.03;;;13.10;69.30;;;;;;5046753;28;20531;-46
2021/05/30 02:23:15;;;;;;;12.63;7.93;;;13.10;69.70;;;;;;5044535;28;20453;-47
2021/05/30 02:25:43;;;;;;;10.43;7.00;;;13.00;69.70;;;;;;5042582;28;20813;-46
2021/05/30 02:28:12;;;;;;;13.03;9.23;;;13.00;69.70;;;;;;5044734;28;20461;-47
2021/05/30 02:30:40;;;;;;;9.93;8.27;;;13.00;69.70;;;;;;5043451;28;20955;-46
2021/05/30 02:33:08;;;;;;;8.57;7.43;;;13.00;70.10;;;;;;5043248;28;20471;-46
2021/05/30 02:35:36;;;;;;;10.40;7.77;;;13.00;69.90;;;;;;5042287;28;20483;-47
2021/05/30 02:38:05;;;;;;;11.43;7.47;;;12.90;70.10;;;;;;5043894;28;20966;-47
2021/05/30 02:40:36;;;;;;;10.40;7.23;;;12.90;70.30;;;;;;5042654;28;20537;-47
2021/05/30 02:43:06;;;;;;;11.10;7.80;;;12.90;70.00;;;;;;5043060;28;20545;-46
2021/05/30 02:45:35;;;;;;;12.97;7.97;;;12.90;70.10;;;;;;5042681;28;21018;-47
2021/05/30 02:48:04;;;;;;;11.60;7.53;;;12.90;70.20;;;;;;5041135;28;20466;-47
2021/05/30 02:50:32;;;;;;;10.93;7.90;;;12.90;70.40;;;;;;5043764;28;21101;-46
2021/05/30 02:53:01;;;;;;;9.90;6.83;;;12.80;70.40;;;;;;5042653;28;20473;-48
2021/05/30 02:55:30;;;;;;;10.63;7.00;;;12.80;70.50;;;;;;5043145;28;20482;-48
2021/05/30 02:57:59;;;;;;;11.90;8.10;;;12.80;70.50;;;;;;5038363;28;20453;-48
2021/05/30 03:00:28;;;;;;;8.70;7.27;;;12.70;70.50;;;;;;5042588;28;20897;-48
2021/05/30 03:02:55;;;;;;;7.57;6.53;;;12.70;70.40;;;;;;5049571;28;20446;-48
2021/05/30 03:05:25;;;;;;;13.27;7.40;;;12.70;70.50;;;;;;5039492;28;21028;-48
2021/05/30 03:07:53;;;;;;;10.43;7.90;;;12.70;70.60;;;;;;5042924;28;20963;-48
2021/05/30 03:10:22;;;;;;;9.80;7.53;;;12.60;70.70;;;;;;5039603;28;20503;-48
2021/05/30 03:12:51;;;;;;;10.37;6.90;;;12.60;70.80;;;;;;5042859;28;20454;-48
2021/05/30 03:15:19;;;;;;;9.37;7.43;;;12.50;70.90;;;;;;5039746;28;20487;-48
2021/05/30 03:17:48;;;;;;;14.00;6.83;;;12.50;71.10;;;;;;5042260;28;20461;-48
2021/05/30 03:20:16;;;;;;;10.63;7.20;;;12.40;71.40;;;;;;5042000;28;21406;-48
2021/05/30 03:22:46;;;;;;;9.17;6.73;;;12.40;71.50;;;;;;5045130;28;20463;-49
2021/05/30 03:25:15;;;;;;;10.97;7.10;;;12.40;71.60;;;;;;5041467;28;20897;-48
2021/05/30 03:27:43;;;;;;;9.33;7.07;;;12.40;71.70;;;;;;5042201;28;20963;-48
2021/05/30 03:30:13;;;;;;;9.67;6.57;;;12.40;72.00;;;;;;5043388;28;20469;-48
2021/05/30 03:32:42;;;;;;;10.37;7.00;;;12.30;72.00;;;;;;5041969;28;20976;-48
2021/05/30 03:35:11;;;;;;;9.43;7.33;;;12.30;72.20;;;;;;5043165;28;20489;-48
2021/05/30 03:37:39;;;;;;;9.77;7.07;;;12.30;72.30;;;;;;5045428;28;20974;-48
2021/05/30 03:40:25;;;;;;;11.33;7.63;;;12.40;72.20;;;;;;5039428;28;21008;-48
2021/05/30 03:42:54;;;;;;;8.80;6.83;;;12.40;72.50;;;;;;5044910;28;20466;-48
2021/05/30 03:45:24;;;;;;;11.47;7.73;;;12.40;72.40;;;;;;5044483;28;20455;-48
2021/05/30 03:47:52;;;;;;;12.03;7.90;;;12.30;72.50;;;;;;5043805;28;20453;-48
2021/05/30 03:50:20;;;;;;;13.13;8.20;;;12.30;72.50;;;;;;5041343;28;20463;-48
2021/05/30 03:52:49;;;;;;;13.50;8.07;;;12.30;72.50;;;;;;5040672;28;20818;-48
2021/05/30 03:55:19;;;;;;;11.80;8.53;;;12.30;72.60;;;;;;5039580;28;20879;-48
2021/05/30 03:57:48;;;;;;;11.90;7.60;;;12.30;72.60;;;;;;5038414;28;20516;-48
2021/05/30 04:00:19;;;;;;;12.83;7.60;;;12.30;72.60;;;;;;5040269;28;20458;-48
2021/05/30 04:02:48;;;;;;;10.37;7.40;;;12.30;72.70;;;;;;5047666;28;20515;-48
2021/05/30 04:05:17;;;;;;;9.40;7.43;;;12.30;72.70;;;;;;5038729;28;20455;-48
2021/05/30 04:07:45;;;;;;;11.03;8.30;;;12.30;72.70;;;;;;5041938;28;20500;-48
2021/05/30 04:10:14;;;;;;;12.93;8.50;;;12.30;72.80;;;;;;5038708;28;20543;-48
2021/05/30 04:12:43;;;;;;;10.67;7.70;;;12.40;73.00;;;;;;5042291;28;20453;-48
2021/05/30 04:15:14;;;;;;;9.70;8.03;;;12.40;73.10;;;;;;5043750;28;20551;-48
2021/05/30 04:17:44;;;;;;;11.50;8.33;;;12.40;73.10;;;;;;5042747;28;20944;-48
2021/05/30 04:20:20;;;;;;;11.27;7.80;;;12.40;73.10;;;;;;5042607;28;20537;-48
2021/05/30 04:22:48;;;;;;;9.90;7.30;;;12.40;73.10;;;;;;5041900;28;20466;-48
2021/05/30 04:25:17;;;;;;;11.30;8.17;;;12.50;73.10;;;;;;5040930;28;20977;-48
2021/05/30 04:27:46;;;;;;;10.70;7.47;;;12.50;73.10;;;;;;5043897;28;20458;-49
2021/05/30 04:30:15;;;;;;;10.17;7.70;;;12.50;73.00;;;;;;5043824;28;20454;-48
2021/05/30 04:32:44;;;;;;;8.77;6.57;;;12.50;73.00;;;;;;5042340;28;20450;-48
2021/05/30 04:35:12;;;;;;;8.20;6.80;;;12.60;73.20;;;;;;5043640;28;20855;-49
2021/05/30 04:37:40;;;;;;;9.93;7.10;;;12.60;73.20;;;;;;5038986;28;20464;-49
2021/05/30 04:40:10;;;;;;;9.60;7.40;;;12.60;73.20;;;;;;5040458;28;20443;-48
2021/05/30 04:42:38;;;;;;;11.90;7.50;;;12.60;73.10;;;;;;5041120;28;20988;-48
2021/05/30 04:45:07;;;;;;;9.00;7.03;;;12.70;72.50;;;;;;5037367;28;20463;-48
2021/05/30 04:47:36;;;;;;;10.00;7.03;;;12.80;72.60;;;;;;5038269;28;20462;-48
2021/05/30 04:50:05;;;;;;;11.20;8.30;;;12.80;72.70;;;;;;5038196;28;20469;-48
2021/05/30 04:52:38;;;;;;;13.73;8.63;;;12.90;72.70;;;;;;5040144;28;20459;-48
2021/05/30 04:55:12;;;;;;;9.90;7.57;;;12.90;72.60;;;;;;5042980;28;20487;-49
2021/05/30 04:57:41;;;;;;;11.30;7.43;;;12.90;72.70;;;;;;5040655;28;20470;-48
2021/05/30 05:00:11;;;;;;;14.93;7.80;;;12.90;72.80;;;;;;5041044;28;20470;-48
2021/05/30 05:02:40;;;;;;;9.43;7.03;;;13.00;72.80;;;;;;5040436;28;20458;-48
2021/05/30 05:05:11;;;;;;;12.07;8.97;;;13.00;72.70;;;;;;5038489;28;21197;-48
2021/05/30 05:07:41;;;;;;;10.63;8.53;;;13.10;72.40;;;;;;5039569;28;20468;-48
2021/05/30 05:10:11;;;;;;;12.97;7.93;;;13.20;71.30;;;;;;5040246;28;20550;-48
2021/05/30 05:12:40;;;;;;;10.00;8.00;;;13.30;70.90;;;;;;5039331;28;20467;-48
2021/05/30 05:15:09;;;;;;;10.97;7.53;;;13.40;70.60;;;;;;5039715;28;20483;-48
2021/05/30 05:17:37;;;;;;;11.83;7.67;;;13.40;70.30;;;;;;5035424;28;20459;-48
2021/05/30 05:20:06;;;;;;;10.93;8.07;;;13.50;70.30;;;;;;5038125;28;20465;-48
2021/05/30 05:22:35;;;;;;;9.70;6.87;;;13.50;70.70;;;;;;5041933;28;20459;-49
2021/05/30 05:25:03;;;;;;;14.13;8.70;;;13.60;70.40;;;;;;5038628;28;20493;-48
2021/05/30 05:27:31;;;;;;;11.37;8.30;;;13.60;69.90;;;;;;5040702;28;20483;-49
2021/05/30 05:29:59;;;;;;;8.97;6.87;;;13.70;69.90;;;;;;5040113;28;20501;-48
2021/05/30 05:32:28;;;;;;;13.37;7.97;;;13.80;69.90;;;;;;5038210;28;20466;-48
2021/05/30 05:34:57;;;;;;;9.27;7.33;;;13.90;69.40;;;;;;5036871;28;20995;-48
2021/05/30 05:37:25;;;;;;;14.30;7.87;;;13.90;69.40;;;;;;5039489;28;20458;-48
2021/05/30 05:39:53;;;;;;;12.07;8.40;;;14.00;69.40;;;;;;5039681;28;20483;-48
2021/05/30 05:42:21;;;;;;;10.50;7.13;;;14.00;69.20;;;;;;5045805;28;20459;-48
2021/05/30 05:44:50;;;;;;;8.57;7.43;;;14.00;69.30;;;;;;5048508;28;20910;-48
2021/05/30 05:47:19;;;;;;;9.03;7.13;;;14.10;68.80;;;;;;5044899;28;20466;-48
2021/05/30 05:49:47;;;;;;;9.60;6.63;;;14.10;68.50;;;;;;5044224;28;20458;-48
2021/05/30 05:52:16;;;;;;;9.73;7.80;;;14.20;68.90;;;;;;5047196;28;20830;-48
2021/05/30 05:54:51;;;;;;;10.87;8.43;;;14.30;68.60;;;;;;5046767;28;20481;-48
2021/05/30 05:57:19;;;;;;;11.00;7.20;;;14.40;68.20;;;;;;5045644;28;20459;-48
2021/05/30 05:59:49;;;;;;;8.83;7.37;;;14.40;67.60;;;;;;5045466;28;20540;-49
2021/05/30 06:02:17;;;;;;;9.47;6.37;;;14.50;67.60;;;;;;5046737;28;20543;-48
2021/05/30 06:04:45;;;;;;;10.80;6.90;;;14.60;68.00;;;;;;5046072;28;20474;-48
2021/05/30 06:07:13;;;;;;;9.13;7.03;;;14.60;68.20;;;;;;5045281;28;20500;-48
2021/05/30 06:09:42;;;;;;;11.77;7.50;;;14.70;68.30;;;;;;5043767;28;20507;-48
2021/05/30 06:12:10;;;;;;;11.50;8.57;;;14.80;67.90;;;;;;5042952;28;20459;-48
2021/05/30 06:14:41;;;;;;;11.40;8.27;;;14.90;67.10;;;;;;5043229;28;20452;-48
2021/05/30 06:17:09;;;;;;;11.37;7.63;;;14.90;66.40;;;;;;5043224;28;21114;-49
2021/05/30 06:19:38;;;;;;;15.43;7.23;;;15.00;65.90;;;;;;5043559;28;20463;-48
2021/05/30 06:22:07;;;;;;;11.27;7.90;;;15.10;65.60;;;;;;5045484;28;20458;-48
2021/05/30 06:24:36;;;;;;;8.10;6.50;;;15.10;65.70;;;;;;5045217;28;20462;-48
2021/05/30 06:27:05;;;;;;;9.57;7.13;;;15.20;65.30;;;;;;5043265;28;20458;-49
2021/05/30 06:29:33;;;;;;;10.07;7.57;;;15.30;64.60;;;;;;5047891;28;20470;-48
2021/05/30 06:32:01;;;;;;;9.20;7.10;;;15.40;64.50;;;;;;5044391;28;20449;-48
2021/05/30 06:34:29;;;;;;;10.73;7.33;;;15.40;64.50;;;;;;5044947;28;20463;-48
2021/05/30 06:36:57;;;;;;;9.90;7.63;;;15.50;63.80;;;;;;5048184;28;21412;-48
2021/05/30 06:39:29;;;;;;;9.37;6.97;;;15.50;63.80;;;;;;5044788;28;20459;-48
2021/05/30 06:41:58;;;;;;;9.50;7.40;;;15.50;63.80;;;;;;5042040;28;20489;-48
2021/05/30 06:44:26;;;;;;;11.10;8.07;;;15.60;63.50;;;;;;5044154;28;20465;-48
2021/05/30 06:46:54;;;;;;;10.43;7.57;;;15.70;63.60;;;;;;5045024;28;20467;-48
2021/05/30 06:49:22;;;;;;;11.03;8.07;;;15.70;64.50;;;;;;5043227;28;20466;-48
2021/05/30 06:51:50;;;;;;;9.93;7.50;;;15.80;63.70;;;;;;5049036;28;20480;-48
2021/05/30 06:54:19;;;;;;;8.20;6.53;;;15.90;63.20;;;;;;5045497;28;20460;-48
2021/05/30 06:56:47;;;;;;;11.20;6.80;;;16.00;63.10;;;;;;5043964;28;20485;-48
2021/05/30 06:59:16;;;;;;;8.00;6.80;;;16.10;62.20;;;;;;5043400;28;20461;-48
2021/05/30 07:01:46;;;;;;;10.40;7.27;;;16.30;62.60;;;;;;5045603;28;20473;-49
2021/05/30 07:04:14;;;;;;;8.40;6.60;;;16.40;62.30;;;;;;5043824;28;20456;-49
2021/05/30 07:06:42;;;;;;;9.00;6.30;;;16.50;61.50;;;;;;5043065;28;20845;-48
2021/05/30 07:09:11;;;;;;;11.30;6.80;;;16.60;60.30;;;;;;5043451;28;20499;-48
2021/05/30 07:11:39;;;;;;;9.60;7.90;;;16.70;59.80;;;;;;5049303;28;20517;-48
2021/05/30 07:14:07;;;;;;;8.67;6.37;;;16.90;59.80;;;;;;5043916;28;20469;-49
2021/05/30 07:16:35;;;;;;;8.70;7.23;;;17.00;59.40;;;;;;5041284;28;21520;-49
2021/05/30 07:19:04;;;;;;;6.90;5.90;;;17.20;59.00;;;;;;5043357;28;20493;-49
2021/05/30 07:21:33;;;;;;;9.37;6.70;;;17.30;59.40;;;;;;5043313;28;20458;-48
2021/05/30 07:24:02;;;;;;;8.57;6.50;;;17.50;58.50;;;;;;5043612;28;20520;-48
2021/05/30 07:26:31;;;;;;;7.47;6.73;;;17.60;57.90;;;;;;5047763;28;20881;-49
2021/05/30 07:28:59;;;;;;;7.67;6.77;;;17.70;57.90;;;;;;5046269;28;20976;-49
2021/05/30 07:31:27;;;;;;;7.47;6.67;;;17.80;58.00;;;;;;5045336;28;21190;-48
2021/05/30 07:33:56;;;;;;;9.77;7.00;;;17.90;58.90;;;;;;5042834;28;20512;-49
2021/05/30 07:36:28;;;;;;;7.63;6.70;;;18.10;58.60;;;;;;5044059;28;20490;-49
2021/05/30 07:38:56;;;;;;;8.67;6.73;;;18.20;57.50;;;;;;5052323;28;20459;-49
2021/05/30 07:41:25;;;;;;;8.53;7.20;;;18.40;57.00;;;;;;5042494;28;20461;-49
2021/05/30 07:43:57;;;;;;;10.17;6.57;;;18.50;56.80;;;;;;5046978;28;20833;-49
2021/05/30 07:46:26;;;;;;;9.47;6.43;;;18.70;56.20;;;;;;5043801;28;20533;-49
2021/05/30 07:48:54;;;;;;;7.37;6.00;;;18.80;56.00;;;;;;5044689;28;20833;-49
2021/05/30 07:51:22;;;;;;;7.13;6.03;;;18.90;56.10;;;;;;5045264;28;20469;-49
2021/05/30 07:53:50;;;;;;;9.00;5.93;;;19.10;56.40;;;;;;5044729;28;20482;-49
2021/05/30 07:56:18;;;;;;;10.27;7.57;;;19.20;55.90;;;;;;5040785;28;20986;-49
2021/05/30 07:58:47;;;;;;;7.67;6.43;;;19.40;55.40;;;;;;5041704;28;20471;-49
2021/05/30 08:01:17;;;;;;;6.43;5.77;;;19.50;54.60;;;;;;5045532;28;20455;-49
2021/05/30 08:03:46;;;;;;;8.10;6.00;;;19.70;54.50;;;;;;5041904;28;20451;-49
2021/05/30 08:06:16;;;;;;;7.00;5.93;;;19.80;53.40;;;;;;5041222;28;20463;-49
2021/05/30 08:08:47;;;;;;;9.33;6.67;;;20.00;52.90;;;;;;5045549;28;20509;-49
2021/05/30 08:11:19;;;;;;;9.90;6.13;;;20.10;53.00;;;;;;5045211;28;20523;-49
2021/05/30 08:13:48;;;;;;;8.87;7.00;;;20.20;53.10;;;;;;5044630;28;21365;-49
2021/05/30 08:16:17;;;;;;;8.57;6.03;;;20.30;52.70;;;;;;5042501;28;20499;-49
2021/05/30 08:18:48;;;;;;;6.27;5.67;;;20.40;52.00;;;;;;5045497;28;20612;-49
2021/05/30 08:21:17;;;;;;;7.10;6.40;;;20.50;51.80;;;;;;5045838;28;20454;-49
2021/05/30 08:23:46;;;;;;;6.90;5.90;;;20.70;52.40;;;;;;5040348;28;20902;-49
2021/05/30 08:26:14;;;;;;;8.10;6.00;;;20.80;51.90;;;;;;5043274;28;20461;-49
2021/05/30 08:28:45;;;;;;;6.50;5.90;;;20.90;51.70;;;;;;5044969;28;20470;-49
2021/05/30 08:31:14;;;;;;;6.73;5.30;;;21.00;51.00;;;;;;5046242;28;20446;-49
2021/05/30 08:33:45;;;;;;;7.90;6.77;;;21.20;51.10;;;;;;5049791;28;20449;-48
2021/05/30 08:36:18;;;;;;;5.80;5.30;;;21.30;50.00;;;;;;5050016;28;20495;-48
2021/05/30 08:38:46;;;;;;;7.93;6.10;;;21.40;49.80;;;;;;5043789;28;20486;-48
2021/05/30 08:41:20;;;;;;;8.10;5.80;;;21.50;49.40;;;;;;5044928;28;20458;-47
2021/05/30 08:43:52;;;;;;;6.37;5.27;;;21.60;49.30;;;;;;5046589;28;20531;-49
2021/05/30 08:46:22;;;;;;;6.27;4.67;;;21.70;48.90;;;;;;5045931;28;20816;-49
2021/05/30 08:48:52;;;;;;;8.90;4.97;;;21.90;47.40;;;;;;5046639;28;20470;-49
2021/05/30 08:51:23;;;;;;;5.30;4.80;;;22.00;47.90;;;;;;5043334;28;20466;-48
2021/05/30 08:53:52;;;;;;;6.07;5.37;;;22.20;47.60;;;;;;5044200;28;20454;-49
2021/05/30 08:56:21;;;;;;;6.87;5.03;;;22.30;46.40;;;;;;5044987;28;20496;-49
2021/05/30 08:58:52;;;;;;;7.47;5.53;;;22.40;46.80;;;;;;5042160;28;20455;-49
2021/05/30 09:01:23;;;;;;;6.27;5.67;;;22.50;46.60;;;;;;5042073;28;20798;-49
2021/05/30 09:04:08;;;;;;;6.10;5.50;;;22.60;46.90;;;;;;5042877;28;20498;-49
2021/05/30 09:06:41;;;;;;;5.27;4.77;;;22.80;45.90;;;;;;5042469;28;20457;-49
2021/05/30 09:09:13;;;;;;;6.70;5.20;;;22.80;46.40;;;;;;5042845;28;20502;-49
2021/05/30 09:11:47;;;;;;;7.90;5.20;;;23.00;46.40;;;;;;5039817;28;20479;-49
2021/05/30 09:14:24;;;;;;;5.17;4.70;;;23.10;45.80;;;;;;5044100;28;20493;-49
2021/05/30 09:16:57;;;;;;;6.40;4.80;;;23.40;44.90;;;;;;5047265;28;20533;-49
2021/05/30 09:19:46;;;;;;;5.33;4.53;;;23.50;44.50;;;;;;5045718;28;20452;-49
2021/05/30 09:22:40;;;;;;;5.10;4.10;;;23.80;43.10;;;;;;5045268;28;20461;-49
2021/05/30 09:25:15;;;;;;;5.37;4.77;;;24.10;41.90;;;;;;5038348;28;20884;-49
2021/05/30 09:27:52;;;;;;;4.70;4.10;;;24.40;41.70;;;;;;5046169;28;20483;-49
2021/05/30 09:30:40;;;;;;;5.13;3.90;;;24.70;41.50;;;;;;5046848;28;20456;-49
2021/05/30 09:33:23;;;;;;;6.47;4.13;;;25.10;40.50;;;;;;5046128;28;20805;-49
2021/05/30 09:35:57;;;;;;;4.20;3.80;;;25.50;39.20;;;;;;5043051;28;20454;-49
2021/05/30 09:38:35;;;;;;;4.37;3.97;;;25.90;38.50;;;;;;5045902;28;20514;-49
2021/05/30 09:41:16;;;;;;;5.63;3.53;;;26.30;38.10;;;;;;5045048;28;20880;-49
2021/05/30 09:43:52;;;;;;;5.77;3.90;;;26.70;37.00;;;;;;5047931;28;20454;-49
2021/05/30 09:46:31;;;;;;;5.53;5.03;;;27.10;36.90;;;;;;5044201;28;20457;-50
2021/05/30 09:49:01;;;;;;;4.43;4.03;;;27.50;36.60;;;;;;5045027;28;20461;-49
2021/05/30 09:51:43;;;;;;;6.27;4.37;;;27.80;36.10;;;;;;5046399;28;20204;-49
2021/05/30 09:54:17;;;;;;;4.17;3.20;;;28.10;36.00;;;;;;5046488;28;20202;-49
2021/05/30 09:56:54;;;;;;;5.30;3.20;;;28.20;35.40;;;;;;5045044;28;20230;-48
2021/05/30 09:59:24;;;;;;;3.87;3.57;;;28.30;34.70;;;;;;5044377;28;20215;-48
2021/05/30 10:02:02;;;;;;;4.90;3.03;;;28.30;34.20;;;;;;5047093;28;20238;-47
2021/05/30 10:04:35;;;;;;;3.50;3.20;;;28.10;34.00;;;;;;5044616;28;20600;-48
2021/05/30 10:07:05;;;;;;;3.67;3.10;;;27.80;33.80;;;;;;5044033;28;20372;-48
2021/05/30 10:09:35;;;;;;;3.87;3.57;;;27.40;35.00;;;;;;5046734;28;20227;-48
2021/05/30 10:12:04;;;;;;;3.67;3.37;;;26.90;35.30;;;;;;5046248;28;20460;-48
2021/05/30 10:14:36;;;;;;;4.40;3.80;;;26.40;35.70;;;;;;5049317;28;20518;-48
2021/05/30 10:17:06;;;;;;;4.67;3.57;;;25.90;36.00;;;;;;5044627;28;20486;-48
2021/05/30 10:19:42;;;;;;;4.33;3.93;;;25.40;37.60;;;;;;5041587;28;21878;-48
2021/05/30 10:22:11;;;;;;;4.37;3.80;;;25.00;39.10;;;;;;5044257;28;20454;-48
2021/05/30 10:24:41;;;;;;;3.97;3.67;;;24.60;39.50;;;;;;5046177;28;20473;-48
2021/05/30 10:27:25;;;;;;;5.13;4.00;;;24.20;40.30;;;;;;5042960;28;20938;-48
2021/05/30 10:30:13;;;;;;;6.00;5.00;;;23.80;40.30;;;;;;5047069;28;20932;-48
2021/05/30 10:32:47;;;;;;;11.77;9.57;;;23.60;40.60;;;;;;5046204;28;20515;-48
2021/05/30 10:35:19;;;;;;;13.60;9.43;;;23.40;40.40;;;;;;5042017;28;20819;-49
2021/05/30 10:37:53;;;;;;;6.63;5.73;;;23.20;40.90;;;;;;5048269;28;20483;-48
2021/05/30 10:40:22;;;;;;;8.10;6.50;;;23.20;41.10;;;;;;5044339;28;20453;-47
2021/05/30 10:43:10;;;;;;;7.37;4.40;;;23.00;40.80;;;;;;5041327;28;20442;-48
2021/05/30 10:45:45;;;;;;;4.60;4.03;;;22.90;41.50;;;;;;5046740;28;20460;-48
2021/05/30 10:48:14;;;;;;;7.13;6.00;;;22.80;42.00;;;;;;5042442;28;20496;-49
2021/05/30 10:53:46;;;;;;;15.87;14.27;;;22.60;42.80;;;;;;5042655;28;20457;-49
2021/05/30 10:56:28;;;;;;;12.00;10.87;;;22.50;42.80;;;;;;5043202;28;20451;-49
2021/05/30 10:59:05;;;;;;;32.20;21.23;;;22.30;43.60;;;;;;5042366;28;20453;-49
2021/05/30 11:01:40;;;;;;;6.10;5.40;;;22.10;42.90;;;;;;5045374;28;20470;-49
2021/05/30 11:04:24;;;;;;;7.80;5.10;;;22.10;43.50;;;;;;5046693;28;20536;-48
2021/05/30 11:07:29;;;;;;;6.43;5.53;;;21.90;44.30;;;;;;5043624;28;20458;-49
2021/05/30 11:09:59;;;;;;;4.43;4.03;;;21.80;44.20;;;;;;5047395;28;21122;-49
2021/05/30 11:12:46;;;;;;;6.57;3.93;;;21.70;45.20;;;;;;5048868;28;21561;-49
2021/05/30 11:15:19;;;;;;;4.17;3.77;;;21.70;45.50;;;;;;5042691;28;20542;-49
2021/05/30 11:17:53;;;;;;;5.53;4.03;;;21.60;43.80;;;;;;5042259;28;20495;-49
2021/05/30 11:20:29;;;;;;;4.83;4.43;;;21.60;43.70;;;;;;5042652;28;20836;-49
2021/05/30 11:23:08;;;;;;;3.90;3.47;;;21.60;43.70;;;;;;5046090;28;20490;-49
2021/05/30 11:25:49;;;;;;;4.60;4.03;;;21.60;44.20;;;;;;5041539;28;20443;-49
2021/05/30 11:28:21;;;;;;;4.20;3.80;;;21.60;44.60;;;;;;5044876;28;20462;-49
2021/05/30 11:30:59;;;;;;;4.20;3.80;;;21.50;45.40;;;;;;5046130;28;20519;-49
2021/05/30 11:33:28;;;;;;;6.87;3.93;;;21.50;44.90;;;;;;5043357;28;20458;-49
2021/05/30 11:35:59;;;;;;;5.07;4.00;;;21.50;45.70;;;;;;5044260;28;20470;-49
2021/05/30 11:38:45;;;;;;;4.43;4.00;;;21.50;45.90;;;;;;5041074;28;20482;-49
2021/05/30 11:41:33;;;;;;;5.10;4.60;;;21.60;45.50;;;;;;5043841;28;20537;-48
2021/05/30 11:44:02;;;;;;;4.10;3.70;;;21.70;45.00;;;;;;5044577;28;20481;-49
2021/05/30 11:46:33;;;;;;;5.70;3.63;;;21.70;45.60;;;;;;5047614;28;20458;-49
2021/05/30 11:49:11;;;;;;;4.53;3.43;;;21.60;45.00;;;;;;5044823;28;20470;-49
2021/05/30 11:51:49;;;;;;;5.17;3.77;;;21.60;44.90;;;;;;5044797;28;20990;-49
2021/05/30 11:54:20;;;;;;;4.03;3.00;;;21.60;44.90;;;;;;5044779;28;20458;-49
2021/05/30 11:56:51;;;;;;;3.53;3.10;;;21.60;44.40;;;;;;5044393;28;20491;-49
2021/05/30 11:59:33;;;;;;;3.43;2.53;;;21.60;43.60;;;;;;5042367;28;20805;-49
2021/05/30 12:02:03;;;;;;;3.87;2.83;;;21.60;43.30;;;;;;5037357;28;20482;-48
2021/05/30 12:04:39;;;;;;;5.13;3.10;;;21.60;42.30;;;;;;5040557;28;20462;-49
2021/05/30 12:07:12;;;;;;;3.93;3.27;;;21.60;41.50;;;;;;5042668;28;20453;-49
2021/05/30 12:09:51;;;;;;;4.30;3.90;;;21.60;41.80;;;;;;5043935;28;20477;-49
2021/05/30 12:12:36;;;;;;;4.03;3.30;;;21.50;42.60;;;;;;5045820;28;20814;-49
2021/05/30 12:15:10;;;;;;;4.03;3.33;;;21.50;43.00;;;;;;5042811;28;20460;-49
2021/05/30 12:17:41;;;;;;;4.10;2.50;;;21.50;43.50;;;;;;5039352;28;20531;-49
2021/05/30 12:20:33;;;;;;;5.80;3.00;;;21.60;44.30;;;;;;5041785;28;20468;-49
2021/05/30 12:23:16;;;;;;;3.73;3.03;;;21.60;42.50;;;;;;5043740;28;20488;-49
2021/05/30 12:25:54;;;;;;;8.80;2.97;;;21.60;41.80;;;;;;5039663;28;20994;-48
2021/05/30 12:28:34;;;;;;;3.20;2.90;;;21.60;41.40;;;;;;5050444;28;21014;-48
2021/05/30 12:31:17;;;;;;;4.27;3.00;;;21.70;41.70;;;;;;5045229;28;20465;-48
2021/05/30 12:34:03;;;;;;;5.33;3.80;;;21.70;41.80;;;;;;5046296;28;20452;-48
2021/05/30 12:36:46;;;;;;;3.03;2.73;;;21.70;43.10;;;;;;5042776;28;20469;-48
2021/05/30 12:39:22;;;;;;;7.27;2.93;;;21.80;43.10;;;;;;5041066;28;20431;-48
2021/05/30 12:42:04;;;;;;;3.87;3.07;;;21.80;42.20;;;;;;5039399;28;20450;-48
2021/05/30 12:44:45;;;;;;;3.40;2.73;;;21.80;41.40;;;;;;5048009;28;20452;-48
2021/05/30 12:47:23;;;;;;;2.70;2.27;;;21.80;41.70;;;;;;5041176;28;20444;-48
2021/05/30 12:50:01;;;;;;;3.20;2.73;;;21.90;40.40;;;;;;5045221;28;20457;-48
2021/05/30 12:52:52;;;;;;;3.87;2.80;;;21.80;40.40;;;;;;5046624;28;20462;-48
2021/05/30 12:55:34;;;;;;;4.63;2.70;;;21.80;40.40;;;;;;5045810;28;20454;-48
2021/05/30 12:58:05;;;;;;;2.40;2.20;;;21.90;39.90;;;;;;5045239;28;20496;-48
2021/05/30 13:00:36;;;;;;;2.73;2.53;;;21.90;39.70;;;;;;5043864;28;20450;-48
2021/05/30 13:03:09;;;;;;;2.97;2.77;;;22.00;40.40;;;;;;5044316;28;20442;-48
2021/05/30 13:05:46;;;;;;;4.73;3.23;;;22.00;40.70;;;;;;5047243;28;20435;-48
2021/05/30 13:08:20;;;;;;;3.70;2.83;;;22.10;41.10;;;;;;5046721;28;20480;-48